sensor_id;sensor_type;location;lat;lon;timestamp;P1;durP1;ratioP1;P2;durP2;ratioP2
21412;SDS011;10867;45.084;5.732;2023-03-01T00:01:15;14.48;;;13.13;;
21412;SDS011;10867;45.084;5.732;2023-03-01T00:04:04;15.55;;;14.05;;
21412;SDS011;10867;45.084;5.732;2023-03-01T00:06:33;14.75;;;13.35;;
21412;SDS011;10867;45.084;5.732;2023-03-01T00:08:59;14.98;;;13.57;;
21412;SDS011;10867;45.084;5.732;2023-03-01T00:11:27;14.27;;;12.93;;
21412;SDS011;10867;45.084;5.732;2023-03-01T00:13:56;15.73;;;14.23;;
21412;SDS011;10867;45.084;5.732;2023-03-01T00:16:32;14.98;;;13.50;;
21412;SDS011;10867;45.084;5.732;2023-03-01T00:19:01;16.05;;;14.50;;
21412;SDS011;10867;45.084;5.732;2023-03-01T00:21:28;15.25;;;13.65;;
21412;SDS011;10867;45.084;5.732;2023-03-01T00:23:54;15.50;;;14.03;;
21412;SDS011;10867;45.084;5.732;2023-03-01T00:26:21;15.25;;;13.85;;
21412;SDS011;10867;45.084;5.732;2023-03-01T00:28:48;15.18;;;13.77;;
21412;SDS011;10867;45.084;5.732;2023-03-01T00:31:19;16.02;;;14.43;;
21412;SDS011;10867;45.084;5.732;2023-03-01T00:33:48;14.85;;;13.45;;
21412;SDS011;10867;45.084;5.732;2023-03-01T00:36:15;15.50;;;14.00;;
21412;SDS011;10867;45.084;5.732;2023-03-01T00:38:42;15.18;;;13.77;;
21412;SDS011;10867;45.084;5.732;2023-03-01T00:41:09;15.53;;;14.03;;
21412;SDS011;10867;45.084;5.732;2023-03-01T00:43:38;15.80;;;14.18;;
21412;SDS011;10867;45.084;5.732;2023-03-01T00:46:05;15.73;;;14.23;;
21412;SDS011;10867;45.084;5.732;2023-03-01T00:48:32;15.23;;;13.73;;
21412;SDS011;10867;45.084;5.732;2023-03-01T00:51:03;15.55;;;14.00;;
21412;SDS011;10867;45.084;5.732;2023-03-01T00:53:30;14.98;;;13.57;;
21412;SDS011;10867;45.084;5.732;2023-03-01T00:55:56;16.25;;;14.02;;
21412;SDS011;10867;45.084;5.732;2023-03-01T00:58:23;15.93;;;14.43;;
21412;SDS011;10867;45.084;5.732;2023-03-01T01:00:51;15.60;;;14.02;;
21412;SDS011;10867;45.084;5.732;2023-03-01T01:03:18;15.70;;;14.20;;
21412;SDS011;10867;45.084;5.732;2023-03-01T01:05:46;16.60;;;14.87;;
21412;SDS011;10867;45.084;5.732;2023-03-01T01:08:14;16.10;;;14.50;;
21412;SDS011;10867;45.084;5.732;2023-03-01T01:10:43;15.77;;;14.25;;
21412;SDS011;10867;45.084;5.732;2023-03-01T01:13:12;15.67;;;14.17;;
21412;SDS011;10867;45.084;5.732;2023-03-01T01:15:39;16.10;;;14.50;;
21412;SDS011;10867;45.084;5.732;2023-03-01T01:18:06;16.27;;;14.77;;
21412;SDS011;10867;45.084;5.732;2023-03-01T01:20:55;17.33;;;15.63;;
21412;SDS011;10867;45.084;5.732;2023-03-01T01:23:26;16.50;;;14.98;;
21412;SDS011;10867;45.084;5.732;2023-03-01T01:26:10;16.58;;;14.93;;
21412;SDS011;10867;45.084;5.732;2023-03-01T01:28:41;16.30;;;14.68;;
21412;SDS011;10867;45.084;5.732;2023-03-01T01:31:08;16.20;;;14.70;;
21412;SDS011;10867;45.084;5.732;2023-03-01T01:33:34;16.80;;;15.10;;
21412;SDS011;10867;45.084;5.732;2023-03-01T01:36:06;16.95;;;15.35;;
21412;SDS011;10867;45.084;5.732;2023-03-01T01:38:33;17.17;;;15.48;;
21412;SDS011;10867;45.084;5.732;2023-03-01T01:41:01;16.55;;;14.85;;
21412;SDS011;10867;45.084;5.732;2023-03-01T01:43:46;16.92;;;15.20;;
21412;SDS011;10867;45.084;5.732;2023-03-01T01:46:20;16.20;;;14.60;;
21412;SDS011;10867;45.084;5.732;2023-03-01T01:48:55;15.73;;;14.33;;
21412;SDS011;10867;45.084;5.732;2023-03-01T01:51:24;16.27;;;14.68;;
21412;SDS011;10867;45.084;5.732;2023-03-01T01:53:52;15.95;;;14.45;;
21412;SDS011;10867;45.084;5.732;2023-03-01T01:56:19;16.58;;;14.88;;
21412;SDS011;10867;45.084;5.732;2023-03-01T01:58:46;16.52;;;15.02;;
21412;SDS011;10867;45.084;5.732;2023-03-01T02:01:15;16.25;;;14.57;;
21412;SDS011;10867;45.084;5.732;2023-03-01T02:03:44;16.60;;;15.00;;
21412;SDS011;10867;45.084;5.732;2023-03-01T02:06:17;16.50;;;15.00;;
21412;SDS011;10867;45.084;5.732;2023-03-01T02:08:45;16.37;;;14.77;;
21412;SDS011;10867;45.084;5.732;2023-03-01T02:11:12;16.60;;;15.02;;
21412;SDS011;10867;45.084;5.732;2023-03-01T02:13:42;17.03;;;15.23;;
21412;SDS011;10867;45.084;5.732;2023-03-01T02:16:11;17.03;;;15.40;;
21412;SDS011;10867;45.084;5.732;2023-03-01T02:18:39;16.70;;;15.10;;
21412;SDS011;10867;45.084;5.732;2023-03-01T02:21:37;17.35;;;15.70;;
21412;SDS011;10867;45.084;5.732;2023-03-01T02:24:18;17.70;;;16.00;;
21412;SDS011;10867;45.084;5.732;2023-03-01T02:26:55;17.50;;;15.85;;
21412;SDS011;10867;45.084;5.732;2023-03-01T02:29:37;17.67;;;15.88;;
21412;SDS011;10867;45.084;5.732;2023-03-01T02:32:08;17.30;;;15.60;;
21412;SDS011;10867;45.084;5.732;2023-03-01T02:34:36;16.95;;;15.35;;
21412;SDS011;10867;45.084;5.732;2023-03-01T02:37:04;18.05;;;16.25;;
21412;SDS011;10867;45.084;5.732;2023-03-01T02:39:40;17.75;;;16.05;;
21412;SDS011;10867;45.084;5.732;2023-03-01T02:42:09;17.40;;;15.70;;
21412;SDS011;10867;45.084;5.732;2023-03-01T02:44:36;17.52;;;15.82;;
21412;SDS011;10867;45.084;5.732;2023-03-01T02:47:03;17.48;;;15.77;;
21412;SDS011;10867;45.084;5.732;2023-03-01T02:49:30;18.10;;;16.30;;
21412;SDS011;10867;45.084;5.732;2023-03-01T02:54:31;18.83;;;17.02;;
21412;SDS011;10867;45.084;5.732;2023-03-01T02:56:59;17.58;;;15.98;;
21412;SDS011;10867;45.084;5.732;2023-03-01T02:59:27;18.35;;;16.58;;
21412;SDS011;10867;45.084;5.732;2023-03-01T03:01:55;17.45;;;15.75;;
21412;SDS011;10867;45.084;5.732;2023-03-01T03:04:21;16.73;;;15.20;;
21412;SDS011;10867;45.084;5.732;2023-03-01T03:06:48;17.73;;;16.03;;
21412;SDS011;10867;45.084;5.732;2023-03-01T03:09:15;17.27;;;15.55;;
21412;SDS011;10867;45.084;5.732;2023-03-01T03:11:42;17.88;;;16.00;;
21412;SDS011;10867;45.084;5.732;2023-03-01T03:14:09;18.50;;;16.70;;
21412;SDS011;10867;45.084;5.732;2023-03-01T03:16:39;17.67;;;15.90;;
21412;SDS011;10867;45.084;5.732;2023-03-01T03:19:05;18.58;;;16.80;;
21412;SDS011;10867;45.084;5.732;2023-03-01T03:21:32;17.77;;;16.10;;
21412;SDS011;10867;45.084;5.732;2023-03-01T03:23:58;27.35;;;22.98;;
21412;SDS011;10867;45.084;5.732;2023-03-01T03:26:25;23.03;;;20.50;;
21412;SDS011;10867;45.084;5.732;2023-03-01T03:28:51;22.60;;;20.23;;
21412;SDS011;10867;45.084;5.732;2023-03-01T03:31:17;21.60;;;19.40;;
21412;SDS011;10867;45.084;5.732;2023-03-01T03:33:46;19.77;;;17.80;;
21412;SDS011;10867;45.084;5.732;2023-03-01T03:36:19;20.83;;;18.80;;
21412;SDS011;10867;45.084;5.732;2023-03-01T03:38:46;20.55;;;18.55;;
21412;SDS011;10867;45.084;5.732;2023-03-01T03:41:12;20.50;;;18.40;;
21412;SDS011;10867;45.084;5.732;2023-03-01T03:43:39;20.40;;;18.48;;
21412;SDS011;10867;45.084;5.732;2023-03-01T03:46:06;20.77;;;18.75;;
21412;SDS011;10867;45.084;5.732;2023-03-01T03:48:37;21.08;;;18.98;;
21412;SDS011;10867;45.084;5.732;2023-03-01T03:51:04;20.92;;;19.00;;
21412;SDS011;10867;45.084;5.732;2023-03-01T03:53:31;20.88;;;18.85;;
21412;SDS011;10867;45.084;5.732;2023-03-01T03:55:57;21.13;;;19.13;;
21412;SDS011;10867;45.084;5.732;2023-03-01T03:58:24;21.33;;;19.15;;
21412;SDS011;10867;45.084;5.732;2023-03-01T04:00:51;21.70;;;19.45;;
21412;SDS011;10867;45.084;5.732;2023-03-01T04:03:27;20.38;;;18.20;;
21412;SDS011;10867;45.084;5.732;2023-03-01T04:05:56;20.83;;;18.75;;
21412;SDS011;10867;45.084;5.732;2023-03-01T04:08:22;21.17;;;19.08;;
21412;SDS011;10867;45.084;5.732;2023-03-01T04:10:50;22.48;;;19.95;;
21412;SDS011;10867;45.084;5.732;2023-03-01T04:13:18;21.75;;;19.67;;
21412;SDS011;10867;45.084;5.732;2023-03-01T04:15:51;23.87;;;21.40;;
21412;SDS011;10867;45.084;5.732;2023-03-01T04:18:18;25.70;;;23.13;;
21412;SDS011;10867;45.084;5.732;2023-03-01T04:20:44;27.67;;;24.88;;
21412;SDS011;10867;45.084;5.732;2023-03-01T04:23:15;28.17;;;25.38;;
21412;SDS011;10867;45.084;5.732;2023-03-01T04:25:54;26.70;;;24.20;;
21412;SDS011;10867;45.084;5.732;2023-03-01T04:28:21;31.58;;;28.10;;
21412;SDS011;10867;45.084;5.732;2023-03-01T04:30:49;30.80;;;27.50;;
21412;SDS011;10867;45.084;5.732;2023-03-01T04:33:16;26.33;;;23.63;;
21412;SDS011;10867;45.084;5.732;2023-03-01T04:35:42;27.55;;;24.63;;
21412;SDS011;10867;45.084;5.732;2023-03-01T04:38:08;27.23;;;24.42;;
21412;SDS011;10867;45.084;5.732;2023-03-01T04:40:35;25.38;;;22.85;;
21412;SDS011;10867;45.084;5.732;2023-03-01T04:43:04;25.65;;;23.17;;
21412;SDS011;10867;45.084;5.732;2023-03-01T04:45:31;24.33;;;22.03;;
21412;SDS011;10867;45.084;5.732;2023-03-01T04:47:57;24.57;;;22.27;;
21412;SDS011;10867;45.084;5.732;2023-03-01T04:50:23;24.92;;;22.33;;
21412;SDS011;10867;45.084;5.732;2023-03-01T04:52:50;24.58;;;22.20;;
21412;SDS011;10867;45.084;5.732;2023-03-01T04:55:36;23.33;;;21.13;;
21412;SDS011;10867;45.084;5.732;2023-03-01T04:58:03;23.80;;;21.60;;
21412;SDS011;10867;45.084;5.732;2023-03-01T05:00:29;24.05;;;21.75;;
21412;SDS011;10867;45.084;5.732;2023-03-01T05:02:59;24.60;;;22.30;;
21412;SDS011;10867;45.084;5.732;2023-03-01T05:05:28;39.95;;;35.90;;
21412;SDS011;10867;45.084;5.732;2023-03-01T05:07:55;39.83;;;35.63;;
21412;SDS011;10867;45.084;5.732;2023-03-01T05:10:24;27.00;;;24.30;;
21412;SDS011;10867;45.084;5.732;2023-03-01T05:12:54;29.05;;;26.13;;
21412;SDS011;10867;45.084;5.732;2023-03-01T05:15:24;25.33;;;22.83;;
21412;SDS011;10867;45.084;5.732;2023-03-01T05:17:54;25.95;;;23.55;;
21412;SDS011;10867;45.084;5.732;2023-03-01T05:20:20;24.90;;;22.60;;
21412;SDS011;10867;45.084;5.732;2023-03-01T05:22:50;32.80;;;29.60;;
21412;SDS011;10867;45.084;5.732;2023-03-01T05:25:17;31.48;;;28.33;;
21412;SDS011;10867;45.084;5.732;2023-03-01T05:27:45;28.45;;;25.65;;
21412;SDS011;10867;45.084;5.732;2023-03-01T05:30:11;29.42;;;26.42;;
21412;SDS011;10867;45.084;5.732;2023-03-01T05:32:52;28.50;;;25.70;;
21412;SDS011;10867;45.084;5.732;2023-03-01T05:49:30;27.95;;;25.15;;
21412;SDS011;10867;45.084;5.732;2023-03-01T06:03:53;26.73;;;24.17;;
21412;SDS011;10867;45.084;5.732;2023-03-01T06:06:50;26.73;;;24.13;;
21412;SDS011;10867;45.084;5.732;2023-03-01T06:09:25;27.27;;;24.48;;
21412;SDS011;10867;45.084;5.732;2023-03-01T06:12:15;26.80;;;24.17;;
21412;SDS011;10867;45.084;5.732;2023-03-01T06:14:41;26.90;;;24.15;;
21412;SDS011;10867;45.084;5.732;2023-03-01T06:17:31;26.90;;;23.85;;
21412;SDS011;10867;45.084;5.732;2023-03-01T06:20:21;28.00;;;25.30;;
21412;SDS011;10867;45.084;5.732;2023-03-01T06:23:13;26.98;;;24.13;;
21412;SDS011;10867;45.084;5.732;2023-03-01T06:25:39;26.60;;;23.77;;
21412;SDS011;10867;45.084;5.732;2023-03-01T06:28:12;27.58;;;24.77;;
21412;SDS011;10867;45.084;5.732;2023-03-01T06:52:25;26.85;;;24.23;;
21412;SDS011;10867;45.084;5.732;2023-03-01T06:54:56;27.80;;;25.00;;
21412;SDS011;10867;45.084;5.732;2023-03-01T07:21:50;26.90;;;24.17;;
21412;SDS011;10867;45.084;5.732;2023-03-01T09:50:16;27.05;;;24.30;;
21412;SDS011;10867;45.084;5.732;2023-03-01T12:05:01;27.35;;;24.13;;
21412;SDS011;10867;45.084;5.732;2023-03-01T12:24:35;26.13;;;23.45;;
